Time;durP1;ratioP1;P1;durP2;ratioP2;P2;SDS_P1;SDS_P2;PMS_P1;PMS_P2;Temp;Humidity;BMP_temperature;BMP_pressure;BME280_temperature;BME280_humidity;BME280_pressure;Samples;Min_cycle;Max_cycle;Signal;HPM_P1;HPM_P2
2021/09/25 00:00:59;;;;;;;8.27;3.67;;;17.00;99.90;;;;;;5011185;28;39899;-81
2021/09/25 00:03:25;;;;;;;6.63;3.28;;;17.00;99.90;;;;;;4995301;28;37817;-80
2021/09/25 00:05:51;;;;;;;8.88;3.10;;;17.00;99.90;;;;;;4993218;28;39316;-81
2021/09/25 00:08:17;;;;;;;7.90;3.50;;;17.00;99.90;;;;;;4991203;28;39264;-80
2021/09/25 00:10:44;;;;;;;7.40;3.50;;;17.00;99.90;;;;;;4993933;28;37825;-81
2021/09/25 00:13:11;;;;;;;11.85;3.85;;;17.00;99.90;;;;;;5008684;28;36661;-80
2021/09/25 00:15:37;;;;;;;11.30;4.20;;;17.00;99.90;;;;;;4991295;28;40302;-80
2021/09/25 00:18:04;;;;;;;8.63;4.03;;;17.00;99.90;;;;;;4994448;28;39378;-80
2021/09/25 00:20:32;;;;;;;10.85;3.80;;;16.90;99.90;;;;;;5007977;28;39241;-81
2021/09/25 00:22:58;;;;;;;7.38;3.72;;;16.80;99.90;;;;;;4993477;28;38678;-80
2021/09/25 00:25:24;;;;;;;10.30;4.00;;;16.80;99.90;;;;;;4990469;28;39893;-80
2021/09/25 00:27:50;;;;;;;8.10;4.30;;;16.80;99.90;;;;;;4993578;28;38310;-80
2021/09/25 00:30:17;;;;;;;7.60;4.05;;;16.90;99.90;;;;;;4992833;28;37492;-80
2021/09/25 00:32:44;;;;;;;10.07;4.45;;;16.80;99.90;;;;;;4991170;28;37777;-80
2021/09/25 00:35:10;;;;;;;7.30;3.90;;;16.80;99.90;;;;;;5004025;28;39169;-80
2021/09/25 00:37:38;;;;;;;8.55;3.88;;;16.90;99.90;;;;;;4991508;28;37026;-80
2021/09/25 00:40:05;;;;;;;8.52;4.07;;;16.80;99.90;;;;;;4994686;28;38038;-80
2021/09/25 00:42:32;;;;;;;8.27;4.10;;;16.90;99.90;;;;;;4969042;28;47251;-81
2021/09/25 00:44:58;;;;;;;10.57;4.43;;;16.80;99.90;;;;;;4978361;28;38732;-80
2021/09/25 00:47:24;;;;;;;9.30;4.60;;;16.70;99.90;;;;;;4990062;28;39003;-80
2021/09/25 00:49:51;;;;;;;11.50;4.65;;;16.70;99.90;;;;;;4987745;28;39756;-80
2021/09/25 00:52:17;;;;;;;9.23;4.35;;;16.60;99.90;;;;;;4986824;28;37597;-80
2021/09/25 00:54:43;;;;;;;7.03;3.95;;;16.60;99.90;;;;;;4997216;28;37411;-80
2021/09/25 00:57:09;;;;;;;7.28;4.68;;;16.60;99.90;;;;;;4991986;28;38590;-79
2021/09/25 00:59:36;;;;;;;8.02;4.45;;;16.60;99.90;;;;;;4999418;28;39322;-79
2021/09/25 01:02:03;;;;;;;6.97;3.90;;;16.60;99.90;;;;;;4995267;28;37340;-78
2021/09/25 01:04:29;;;;;;;9.68;4.82;;;16.60;99.90;;;;;;4993734;28;39891;-77
2021/09/25 01:06:55;;;;;;;7.45;3.67;;;16.60;99.90;;;;;;4991942;28;39328;-78
2021/09/25 01:09:21;;;;;;;8.90;4.78;;;16.60;99.90;;;;;;4994686;28;36596;-78
2021/09/25 01:11:48;;;;;;;7.72;4.43;;;16.50;99.90;;;;;;4991377;28;37282;-80
2021/09/25 01:14:14;;;;;;;8.50;4.28;;;16.50;99.90;;;;;;4990989;28;37480;-79
2021/09/25 01:16:41;;;;;;;7.70;4.53;;;16.50;99.90;;;;;;5005793;28;38666;-79
2021/09/25 01:19:07;;;;;;;7.47;4.32;;;16.40;99.90;;;;;;4992308;28;38403;-79
2021/09/25 01:21:33;;;;;;;6.88;4.40;;;16.40;99.90;;;;;;4987965;28;37150;-77
2021/09/25 01:24:00;;;;;;;8.98;5.00;;;16.40;99.90;;;;;;4988071;28;37785;-79
2021/09/25 01:26:26;;;;;;;7.00;4.43;;;16.40;99.90;;;;;;4999626;28;37172;-78
2021/09/25 01:28:53;;;;;;;7.18;4.75;;;16.40;99.90;;;;;;4995550;28;38704;-79
2021/09/25 01:31:21;;;;;;;6.40;4.65;;;16.40;99.90;;;;;;4993782;28;37005;-79
2021/09/25 01:33:51;;;;;;;14.43;5.75;;;16.40;99.90;;;;;;4999783;28;42199;-80
2021/09/25 01:36:18;;;;;;;13.05;6.47;;;16.40;99.90;;;;;;4992841;28;39240;-79
2021/09/25 01:38:45;;;;;;;10.55;5.00;;;16.40;99.90;;;;;;4994754;28;38133;-79
2021/09/25 01:41:12;;;;;;;11.55;5.95;;;16.40;99.90;;;;;;4989516;28;39055;-80
2021/09/25 01:43:38;;;;;;;6.30;4.70;;;16.40;99.90;;;;;;4995329;28;38612;-79
2021/09/25 01:46:05;;;;;;;9.50;5.10;;;16.40;99.90;;;;;;5009882;28;38789;-80
2021/09/25 01:48:31;;;;;;;9.85;6.18;;;16.40;99.90;;;;;;4989966;28;39102;-79
2021/09/25 01:50:57;;;;;;;11.15;6.13;;;16.40;99.90;;;;;;4987005;28;38674;-80
2021/09/25 01:53:24;;;;;;;9.00;5.05;;;16.40;99.90;;;;;;5003832;28;36928;-79
2021/09/25 01:55:50;;;;;;;11.75;5.95;;;16.30;99.90;;;;;;4987977;28;39700;-79
2021/09/25 01:58:17;;;;;;;10.02;5.72;;;16.30;99.90;;;;;;4995984;28;38267;-79
2021/09/25 02:00:44;;;;;;;12.57;6.70;;;16.40;99.90;;;;;;4994480;28;38692;-79
2021/09/25 02:03:12;;;;;;;11.23;6.38;;;16.40;99.90;;;;;;4991014;28;39518;-78
2021/09/25 02:05:38;;;;;;;11.20;6.60;;;16.40;99.90;;;;;;4994111;28;38296;-79
2021/09/25 02:08:05;;;;;;;13.25;7.05;;;16.40;99.90;;;;;;4989924;28;39400;-79
2021/09/25 02:10:32;;;;;;;11.30;7.30;;;16.40;99.90;;;;;;4993634;28;37265;-79
2021/09/25 02:12:58;;;;;;;11.98;7.05;;;16.40;99.90;;;;;;4990800;28;39191;-79
2021/09/25 02:15:24;;;;;;;12.68;7.30;;;16.40;99.90;;;;;;4987271;28;38749;-79
2021/09/25 02:17:50;;;;;;;10.80;6.40;;;16.50;99.90;;;;;;4987782;28;37109;-79
2021/09/25 02:20:16;;;;;;;10.35;6.78;;;16.50;99.90;;;;;;4991399;28;37054;-79
2021/09/25 02:22:42;;;;;;;14.63;7.78;;;16.50;99.90;;;;;;4992770;28;38632;-80
2021/09/25 02:25:11;;;;;;;15.23;8.35;;;16.60;99.90;;;;;;4992552;28;38268;-79
2021/09/25 02:27:40;;;;;;;11.32;7.95;;;16.60;99.90;;;;;;4970913;28;40176;-79
2021/09/25 02:30:11;;;;;;;12.13;8.05;;;16.60;99.90;;;;;;4977572;28;37226;-79
2021/09/25 02:32:38;;;;;;;13.48;8.50;;;16.60;99.90;;;;;;4978664;28;48410;-79
2021/09/25 02:35:05;;;;;;;12.32;8.40;;;16.60;99.90;;;;;;4987339;28;38226;-79
2021/09/25 02:37:31;;;;;;;13.05;7.90;;;16.60;99.90;;;;;;4986147;28;47637;-79
2021/09/25 02:39:58;;;;;;;12.27;8.20;;;16.60;99.90;;;;;;4997265;28;38192;-79
2021/09/25 02:42:24;;;;;;;15.02;8.15;;;16.60;99.90;;;;;;4992455;28;40315;-79
2021/09/25 02:44:50;;;;;;;13.20;8.02;;;16.60;99.90;;;;;;4998145;28;37979;-79
2021/09/25 02:47:16;;;;;;;14.57;8.20;;;16.60;99.90;;;;;;4996939;28;39377;-79
2021/09/25 02:49:42;;;;;;;19.80;9.00;;;16.60;99.90;;;;;;4992312;28;37681;-79
2021/09/25 02:52:08;;;;;;;16.42;9.70;;;16.50;99.90;;;;;;4988751;28;38119;-79
2021/09/25 02:54:34;;;;;;;19.08;9.95;;;16.60;99.90;;;;;;4992079;28;37928;-79
2021/09/25 02:57:01;;;;;;;13.48;8.50;;;16.60;99.90;;;;;;4992535;28;38600;-79
2021/09/25 02:59:27;;;;;;;21.88;9.43;;;16.50;99.90;;;;;;5005289;28;47337;-79
2021/09/25 03:01:53;;;;;;;14.35;10.15;;;16.60;99.90;;;;;;4988957;28;39687;-79
2021/09/25 03:04:19;;;;;;;14.27;8.73;;;16.60;99.90;;;;;;5004216;28;38428;-79
2021/09/25 03:06:45;;;;;;;13.77;8.80;;;16.60;99.90;;;;;;4976572;28;39107;-79
2021/09/25 03:09:11;;;;;;;17.42;10.30;;;16.60;99.90;;;;;;4989571;28;39078;-79
2021/09/25 03:11:37;;;;;;;16.83;10.35;;;16.60;99.90;;;;;;4990320;28;37383;-79
2021/09/25 03:14:03;;;;;;;15.45;9.85;;;16.60;99.90;;;;;;4991347;28;38388;-79
2021/09/25 03:16:29;;;;;;;20.30;10.07;;;16.60;99.90;;;;;;4995285;28;39293;-79
2021/09/25 03:18:56;;;;;;;14.77;8.35;;;16.60;99.90;;;;;;4991878;28;39000;-79
2021/09/25 03:21:22;;;;;;;15.57;8.73;;;16.60;99.90;;;;;;4995429;28;38297;-79
2021/09/25 03:23:48;;;;;;;16.83;10.18;;;16.70;99.90;;;;;;4991799;28;38540;-79
2021/09/25 03:26:14;;;;;;;17.92;10.45;;;16.70;99.90;;;;;;5006040;28;37737;-78
2021/09/25 03:28:40;;;;;;;18.55;9.65;;;16.60;99.90;;;;;;4993205;28;37643;-79
2021/09/25 03:31:06;;;;;;;16.35;9.90;;;16.70;99.90;;;;;;4995883;28;41045;-79
2021/09/25 03:33:32;;;;;;;17.98;10.15;;;16.70;99.90;;;;;;4995389;28;38958;-79
2021/09/25 03:35:58;;;;;;;16.92;9.73;;;16.70;99.90;;;;;;4989955;28;39259;-80
2021/09/25 03:38:26;;;;;;;21.20;11.68;;;16.70;99.90;;;;;;4993594;28;36387;-79
2021/09/25 03:40:52;;;;;;;18.85;10.40;;;16.70;99.90;;;;;;4989762;28;38787;-79
2021/09/25 03:43:18;;;;;;;16.40;9.48;;;16.70;99.90;;;;;;4994512;28;38698;-79
2021/09/25 03:45:45;;;;;;;16.67;9.48;;;16.70;99.90;;;;;;4996822;28;38043;-78
2021/09/25 03:48:11;;;;;;;21.38;11.05;;;16.70;99.90;;;;;;4997736;28;36104;-78
2021/09/25 03:50:38;;;;;;;25.63;13.48;;;16.80;99.90;;;;;;5001060;28;37753;-78
2021/09/25 03:53:05;;;;;;;26.88;13.07;;;16.70;99.90;;;;;;5001368;28;37435;-77
2021/09/25 03:55:31;;;;;;;18.13;10.90;;;16.70;99.90;;;;;;4997682;28;38214;-78
2021/09/25 03:57:57;;;;;;;20.77;12.07;;;16.70;99.90;;;;;;5002083;28;36342;-78
2021/09/25 04:00:25;;;;;;;18.42;11.35;;;16.70;99.90;;;;;;4995851;28;37244;-79
2021/09/25 04:02:52;;;;;;;23.55;11.95;;;16.70;99.90;;;;;;4998158;28;38619;-78
2021/09/25 04:05:19;;;;;;;26.15;13.45;;;16.70;99.90;;;;;;4998906;28;37021;-78
2021/09/25 04:07:46;;;;;;;21.38;12.50;;;16.70;99.90;;;;;;4998706;28;35729;-79
2021/09/25 04:10:13;;;;;;;20.80;12.25;;;16.70;99.90;;;;;;5013632;28;39259;-79
2021/09/25 04:12:40;;;;;;;20.63;12.98;;;16.60;99.90;;;;;;5010472;28;38196;-79
2021/09/25 04:15:08;;;;;;;27.67;13.40;;;16.60;99.90;;;;;;4987937;28;37164;-79
2021/09/25 04:17:38;;;;;;;20.83;11.30;;;16.50;99.90;;;;;;4992736;28;37209;-79
2021/09/25 04:20:05;;;;;;;27.20;13.30;;;16.50;99.90;;;;;;4991417;28;39941;-79
2021/09/25 04:22:32;;;;;;;22.45;11.52;;;16.50;99.90;;;;;;4994002;28;48501;-79
2021/09/25 04:24:58;;;;;;;23.67;12.60;;;16.50;99.90;;;;;;5004570;28;41979;-79
2021/09/25 04:27:29;;;;;;;18.45;11.05;;;16.60;99.90;;;;;;4991403;28;37327;-79
2021/09/25 04:29:58;;;;;;;15.15;10.52;;;16.50;99.90;;;;;;4990178;28;39375;-79
2021/09/25 04:32:24;;;;;;;19.10;10.82;;;16.50;99.90;;;;;;4991387;28;39790;-79
2021/09/25 04:34:50;;;;;;;18.63;11.52;;;16.60;99.90;;;;;;4987820;28;39927;-79
2021/09/25 04:37:16;;;;;;;22.30;11.57;;;16.60;99.90;;;;;;4991664;28;37470;-79
2021/09/25 04:39:43;;;;;;;21.70;11.95;;;16.60;99.90;;;;;;4990649;28;39736;-79
2021/09/25 04:42:09;;;;;;;19.35;10.65;;;16.60;99.90;;;;;;4989232;28;38951;-78
2021/09/25 04:44:35;;;;;;;17.50;11.43;;;16.50;99.90;;;;;;4990488;28;36787;-78
2021/09/25 04:47:01;;;;;;;17.60;10.60;;;16.50;99.90;;;;;;4985283;28;35890;-78
2021/09/25 04:49:28;;;;;;;21.05;12.02;;;16.60;99.90;;;;;;4990971;28;40473;-79
2021/09/25 04:51:54;;;;;;;19.70;11.45;;;16.60;99.90;;;;;;4993962;28;38358;-79
2021/09/25 04:54:20;;;;;;;20.85;12.13;;;16.60;99.90;;;;;;4991841;28;39266;-79
2021/09/25 04:56:46;;;;;;;20.10;12.65;;;16.60;99.90;;;;;;4989520;28;35718;-80
2021/09/25 04:59:12;;;;;;;26.15;13.68;;;16.60;99.90;;;;;;4988783;28;38509;-79
2021/09/25 05:01:38;;;;;;;22.65;14.07;;;16.60;99.90;;;;;;4991862;28;38286;-79
2021/09/25 05:04:07;;;;;;;24.17;13.15;;;16.60;99.90;;;;;;5001325;28;37641;-79
2021/09/25 05:06:33;;;;;;;29.13;13.73;;;16.50;99.90;;;;;;4988601;28;37062;-79
2021/09/25 05:08:59;;;;;;;25.00;14.18;;;16.50;99.90;;;;;;4988386;28;38695;-80
2021/09/25 05:11:25;;;;;;;23.85;13.13;;;16.40;99.90;;;;;;4986943;28;38073;-80
2021/09/25 05:13:52;;;;;;;21.85;13.18;;;16.50;99.90;;;;;;4989194;28;38950;-79
2021/09/25 05:16:18;;;;;;;26.13;13.63;;;16.50;99.90;;;;;;4993074;28;37541;-79
2021/09/25 05:18:44;;;;;;;23.25;13.00;;;16.50;99.90;;;;;;4993015;28;38253;-79
2021/09/25 05:21:10;;;;;;;16.25;12.27;;;16.50;99.90;;;;;;4991285;28;39772;-79
2021/09/25 05:23:37;;;;;;;18.08;12.07;;;16.50;99.90;;;;;;4990470;28;39254;-79
2021/09/25 05:26:06;;;;;;;25.38;13.10;;;16.50;99.90;;;;;;4992702;28;35668;-79
2021/09/25 05:28:32;;;;;;;23.98;12.02;;;16.50;99.90;;;;;;5006083;28;39514;-79
2021/09/25 05:30:58;;;;;;;18.70;12.40;;;16.50;99.90;;;;;;4984104;28;39232;-79
2021/09/25 05:33:24;;;;;;;21.23;13.50;;;16.60;99.90;;;;;;4992266;28;37541;-78
2021/09/25 05:35:50;;;;;;;18.55;11.25;;;16.60;99.90;;;;;;4991187;28;37815;-79
2021/09/25 05:38:17;;;;;;;22.52;14.65;;;16.60;99.90;;;;;;4994083;28;38893;-79
2021/09/25 05:40:43;;;;;;;23.48;14.55;;;16.60;99.90;;;;;;4999024;28;39017;-79
2021/09/25 05:43:09;;;;;;;22.52;13.60;;;16.60;99.90;;;;;;4995335;28;38745;-79
2021/09/25 05:45:35;;;;;;;26.70;13.90;;;16.50;99.90;;;;;;5012258;28;39175;-79
2021/09/25 05:48:01;;;;;;;24.92;13.25;;;16.60;99.90;;;;;;4999066;28;38800;-78
2021/09/25 05:50:27;;;;;;;19.73;13.13;;;16.50;99.90;;;;;;4995230;28;46844;-80
2021/09/25 05:52:53;;;;;;;23.85;15.40;;;16.60;99.90;;;;;;4993560;28;38843;-79
2021/09/25 05:55:21;;;;;;;22.83;13.30;;;16.60;99.90;;;;;;4992624;28;37948;-80
2021/09/25 05:57:48;;;;;;;23.75;14.13;;;16.60;99.90;;;;;;4995100;28;40533;-79
2021/09/25 06:00:14;;;;;;;20.25;13.75;;;16.60;99.90;;;;;;4991250;28;39415;-79
2021/09/25 06:02:42;;;;;;;26.20;15.05;;;16.60;99.90;;;;;;4991063;28;39827;-79
2021/09/25 06:05:09;;;;;;;21.20;12.98;;;16.60;99.90;;;;;;4997526;28;37843;-78
2021/09/25 06:07:36;;;;;;;28.67;17.23;;;16.60;99.90;;;;;;4987838;28;38899;-79
2021/09/25 06:10:04;;;;;;;23.73;13.95;;;16.60;99.90;;;;;;4998535;28;40009;-79
2021/09/25 06:12:30;;;;;;;23.30;14.10;;;16.70;99.90;;;;;;5000981;28;47116;-79
2021/09/25 06:14:56;;;;;;;27.27;15.05;;;16.70;99.90;;;;;;4993650;28;37892;-80
2021/09/25 06:17:23;;;;;;;26.38;16.35;;;16.70;99.90;;;;;;4997552;28;39067;-79
2021/09/25 06:19:49;;;;;;;27.50;15.32;;;16.70;99.90;;;;;;5001980;28;37719;-79
2021/09/25 06:22:16;;;;;;;21.30;13.73;;;16.70;99.90;;;;;;4999560;28;38838;-79
2021/09/25 06:24:42;;;;;;;21.13;13.63;;;16.70;99.90;;;;;;5000339;28;38879;-79
2021/09/25 06:27:08;;;;;;;27.13;15.48;;;16.80;99.90;;;;;;4991837;28;38009;-79
2021/09/25 06:29:34;;;;;;;24.23;14.30;;;16.80;99.90;;;;;;4994898;28;37649;-80
2021/09/25 06:32:00;;;;;;;24.92;15.43;;;16.80;99.90;;;;;;4996443;28;39803;-80
2021/09/25 06:34:27;;;;;;;25.55;14.60;;;16.80;99.90;;;;;;4996248;28;49050;-79
2021/09/25 06:36:53;;;;;;;22.13;13.65;;;16.80;99.90;;;;;;5004208;28;39614;-79
2021/09/25 06:39:21;;;;;;;26.42;14.48;;;16.80;99.90;;;;;;4996097;28;37741;-79
2021/09/25 06:41:48;;;;;;;23.80;14.55;;;16.90;99.90;;;;;;4997122;28;38760;-79
2021/09/25 06:44:14;;;;;;;24.20;15.35;;;16.90;99.90;;;;;;4999306;28;38407;-79
2021/09/25 06:46:40;;;;;;;27.98;15.60;;;17.00;99.90;;;;;;4997855;28;39362;-79
2021/09/25 06:49:06;;;;;;;21.05;14.32;;;17.00;99.90;;;;;;5010954;28;39965;-79
2021/09/25 06:51:33;;;;;;;24.88;14.68;;;17.00;99.90;;;;;;5014644;28;37500;-80
2021/09/25 06:53:59;;;;;;;22.42;14.45;;;17.00;99.90;;;;;;5000305;28;41524;-81
2021/09/25 06:56:25;;;;;;;25.90;15.32;;;17.10;99.90;;;;;;4999222;28;41191;-79
2021/09/25 06:58:52;;;;;;;24.25;15.00;;;17.10;99.90;;;;;;5012944;28;40910;-79
2021/09/25 07:01:19;;;;;;;21.85;14.13;;;17.10;99.90;;;;;;5003602;28;39107;-79
2021/09/25 07:03:45;;;;;;;22.58;13.02;;;17.00;99.90;;;;;;5007516;28;37520;-79
2021/09/25 07:06:12;;;;;;;19.98;13.27;;;17.00;99.90;;;;;;5002140;28;38655;-79
2021/09/25 07:08:38;;;;;;;18.05;12.40;;;17.00;99.90;;;;;;5012749;28;39259;-79
2021/09/25 07:11:05;;;;;;;18.55;13.00;;;16.90;99.90;;;;;;5007307;28;38622;-79
2021/09/25 07:13:31;;;;;;;16.52;12.18;;;16.90;99.90;;;;;;5001403;28;37103;-79
2021/09/25 07:15:57;;;;;;;24.45;13.43;;;17.00;99.90;;;;;;5002583;28;40608;-80
2021/09/25 07:18:23;;;;;;;21.05;12.25;;;17.20;99.90;;;;;;5005352;28;38731;-80
2021/09/25 07:20:51;;;;;;;19.52;13.45;;;17.20;99.90;;;;;;4997546;28;38695;-79
2021/09/25 07:23:17;;;;;;;21.05;13.38;;;17.30;99.90;;;;;;5001801;28;37985;-78
2021/09/25 07:25:43;;;;;;;18.08;12.65;;;17.40;99.90;;;;;;5007937;28;39279;-78
2021/09/25 07:28:10;;;;;;;21.98;13.35;;;17.40;99.90;;;;;;5009404;28;38699;-80
2021/09/25 07:30:37;;;;;;;23.80;14.82;;;17.30;99.90;;;;;;5008253;28;38314;-79
2021/09/25 07:33:05;;;;;;;20.35;14.02;;;17.30;99.90;;;;;;4999297;28;37509;-79
2021/09/25 07:35:34;;;;;;;26.10;14.82;;;17.20;99.90;;;;;;5000396;28;38830;-80
2021/09/25 07:38:02;;;;;;;18.80;13.70;;;17.20;99.90;;;;;;5002913;28;38573;-79
2021/09/25 07:40:28;;;;;;;20.42;13.80;;;17.20;99.90;;;;;;4999904;28;47912;-79
2021/09/25 07:42:54;;;;;;;20.48;12.55;;;17.30;99.90;;;;;;5004557;28;37540;-79
2021/09/25 07:45:20;;;;;;;30.05;14.00;;;17.40;99.90;;;;;;5005191;28;39914;-79
2021/09/25 07:47:46;;;;;;;29.60;14.25;;;17.50;99.90;;;;;;5004786;28;39314;-79
2021/09/25 07:50:12;;;;;;;25.30;14.40;;;17.50;99.90;;;;;;4998769;28;39382;-79
2021/09/25 07:52:42;;;;;;;23.88;13.27;;;17.60;99.90;;;;;;5008176;28;39095;-80
2021/09/25 07:55:10;;;;;;;24.60;14.27;;;17.40;99.90;;;;;;5000907;28;39536;-79
2021/09/25 07:57:38;;;;;;;19.42;12.98;;;17.40;99.90;;;;;;4997495;28;39207;-79
2021/09/25 08:00:06;;;;;;;25.85;14.48;;;17.50;99.90;;;;;;5001514;28;39117;-78
2021/09/25 08:02:32;;;;;;;23.05;14.45;;;17.60;99.90;;;;;;5004795;28;47797;-79
2021/09/25 08:04:58;;;;;;;22.63;13.60;;;17.70;99.90;;;;;;5001556;28;38763;-80
2021/09/25 08:07:24;;;;;;;34.97;16.65;;;17.80;99.90;;;;;;4997487;28;40003;-80
2021/09/25 08:09:50;;;;;;;34.22;17.02;;;17.70;99.90;;;;;;4998409;28;38860;-79
2021/09/25 08:12:17;;;;;;;32.40;17.98;;;17.70;99.90;;;;;;5029097;28;36259;-79
2021/09/25 08:14:43;;;;;;;32.17;17.23;;;17.80;99.90;;;;;;4996568;28;37832;-79
2021/09/25 08:17:09;;;;;;;38.15;18.20;;;17.80;99.90;;;;;;5002530;28;38822;-80
2021/09/25 08:19:35;;;;;;;39.10;19.15;;;17.80;99.90;;;;;;5002343;28;39134;-80
2021/09/25 08:22:01;;;;;;;42.83;20.15;;;17.70;99.90;;;;;;4998470;28;37313;-78
2021/09/25 08:24:27;;;;;;;39.28;21.63;;;17.60;99.90;;;;;;4989063;28;47129;-80
2021/09/25 08:26:53;;;;;;;38.22;20.58;;;17.60;99.90;;;;;;4999794;28;38045;-79
2021/09/25 08:29:19;;;;;;;43.42;22.48;;;17.60;99.90;;;;;;4993295;28;38228;-80
2021/09/25 08:31:45;;;;;;;38.15;23.27;;;17.60;99.90;;;;;;5004621;28;37475;-80
2021/09/25 08:34:13;;;;;;;42.63;23.25;;;17.60;99.90;;;;;;5024584;28;38598;-80
2021/09/25 08:36:39;;;;;;;35.22;20.88;;;17.60;99.90;;;;;;4997791;28;39545;-79
2021/09/25 08:39:07;;;;;;;36.50;20.38;;;17.70;99.90;;;;;;5002333;28;38114;-80
2021/09/25 08:41:35;;;;;;;36.85;21.70;;;17.90;99.90;;;;;;4995788;28;37166;-80
2021/09/25 08:44:01;;;;;;;44.47;22.08;;;18.00;99.90;;;;;;5001079;28;39924;-79
2021/09/25 08:46:27;;;;;;;44.88;25.25;;;17.90;99.90;;;;;;5005299;28;38459;-80
2021/09/25 08:48:55;;;;;;;49.28;24.38;;;18.00;99.90;;;;;;5001534;28;38106;-80
2021/09/25 08:51:21;;;;;;;43.40;24.23;;;17.90;99.90;;;;;;5002363;28;38213;-80
2021/09/25 08:53:47;;;;;;;50.22;26.05;;;17.80;99.90;;;;;;4999276;28;38460;-80
2021/09/25 08:56:14;;;;;;;49.60;26.90;;;17.80;99.90;;;;;;5005415;28;38401;-80
2021/09/25 08:58:40;;;;;;;49.30;26.42;;;17.70;99.90;;;;;;5003719;28;38884;-80
2021/09/25 09:01:06;;;;;;;54.53;28.00;;;17.70;99.90;;;;;;5005381;28;39197;-80
2021/09/25 09:03:44;;;;;;;49.03;25.63;;;17.80;99.90;;;;;;5029057;28;38908;-79
2021/09/25 09:06:17;;;;;;;55.80;28.52;;;17.80;99.90;;;;;;4994754;28;37596;-80
2021/09/25 09:08:45;;;;;;;53.95;30.63;;;17.80;99.90;;;;;;4996502;28;40063;-80
2021/09/25 09:11:12;;;;;;;59.70;29.48;;;17.70;99.90;;;;;;4993347;28;38074;-80
2021/09/25 09:13:42;;;;;;;56.42;30.17;;;17.60;99.90;;;;;;5009805;28;39254;-80
2021/09/25 09:16:10;;;;;;;56.90;30.27;;;17.60;99.90;;;;;;4995480;28;40515;-79
2021/09/25 09:18:40;;;;;;;52.33;29.77;;;17.60;99.90;;;;;;4996692;28;36657;-80
2021/09/25 09:21:08;;;;;;;52.42;27.85;;;17.60;99.90;;;;;;4997834;28;39224;-80
2021/09/25 09:23:41;;;;;;;52.85;27.48;;;17.80;99.90;;;;;;5002628;28;38352;-79
2021/09/25 09:26:08;;;;;;;56.45;30.65;;;18.00;99.90;;;;;;4979345;28;39223;-80
2021/09/25 09:28:36;;;;;;;50.33;27.52;;;18.00;99.90;;;;;;5001824;28;38446;-80
2021/09/25 09:31:04;;;;;;;54.30;28.35;;;17.80;99.90;;;;;;5013194;28;36572;-80
2021/09/25 09:33:43;;;;;;;50.15;27.63;;;17.80;99.90;;;;;;5004900;28;38501;-80
2021/09/25 09:36:31;;;;;;;49.92;27.85;;;18.00;99.90;;;;;;4998949;28;37904;-80
2021/09/25 09:39:15;;;;;;;56.03;29.35;;;18.00;99.90;;;;;;4995704;28;38768;-80
2021/09/25 09:41:44;;;;;;;43.67;24.60;;;18.10;99.90;;;;;;5002083;28;47896;-81
2021/09/25 09:44:13;;;;;;;50.45;27.23;;;18.20;99.90;;;;;;5003296;28;39922;-81
2021/09/25 09:46:40;;;;;;;52.05;29.13;;;18.40;99.90;;;;;;5011938;28;39503;-80
2021/09/25 09:49:09;;;;;;;51.58;27.40;;;18.60;99.90;;;;;;5024584;28;40138;-80
2021/09/25 09:51:37;;;;;;;48.70;27.48;;;18.60;99.90;;;;;;5009592;28;38367;-80
2021/09/25 09:54:08;;;;;;;46.00;26.90;;;18.50;99.90;;;;;;5005077;28;39777;-80
2021/09/25 09:56:40;;;;;;;45.50;27.08;;;18.40;99.90;;;;;;5024725;28;38573;-80
2021/09/25 09:59:07;;;;;;;45.22;26.45;;;18.50;99.90;;;;;;5016889;28;38580;-80
2021/09/25 10:01:35;;;;;;;44.55;26.00;;;18.40;99.90;;;;;;5000401;28;37354;-81
2021/09/25 10:04:01;;;;;;;43.25;24.73;;;18.40;99.90;;;;;;5003390;28;40787;-80
2021/09/25 10:06:28;;;;;;;42.47;26.50;;;18.40;99.90;;;;;;5008260;28;47490;-81
2021/09/25 10:08:54;;;;;;;44.03;24.77;;;18.70;99.90;;;;;;5003976;28;38501;-80
2021/09/25 10:11:23;;;;;;;41.00;24.92;;;18.90;99.90;;;;;;5004062;28;38249;-80
2021/09/25 10:13:51;;;;;;;39.83;24.95;;;19.00;99.90;;;;;;5012437;28;39388;-80
2021/09/25 10:16:17;;;;;;;39.38;23.45;;;18.70;99.90;;;;;;4991209;28;38444;-80
2021/09/25 10:18:43;;;;;;;39.85;23.20;;;18.60;99.90;;;;;;4996503;28;36488;-81
2021/09/25 10:21:13;;;;;;;38.95;23.73;;;18.60;99.90;;;;;;4997807;28;37469;-80
2021/09/25 10:24:09;;;;;;;42.25;24.98;;;18.80;99.90;;;;;;4997520;28;37301;-80
2021/09/25 10:26:43;;;;;;;38.35;22.98;;;18.80;99.90;;;;;;4996896;28;48529;-80
2021/09/25 10:29:10;;;;;;;33.42;21.15;;;18.80;99.90;;;;;;5001539;28;37482;-80
2021/09/25 10:31:37;;;;;;;35.17;23.08;;;19.00;99.90;;;;;;5020260;28;37945;-79
2021/09/25 10:34:27;;;;;;;39.65;22.15;;;19.40;99.90;;;;;;5001447;28;39601;-78
2021/09/25 10:36:58;;;;;;;40.28;21.65;;;19.60;99.90;;;;;;4986830;28;39091;-80
2021/09/25 10:39:28;;;;;;;33.88;20.95;;;19.80;99.90;;;;;;5005482;28;38903;-82
2021/09/25 10:42:00;;;;;;;31.05;20.20;;;20.00;99.90;;;;;;5016470;28;39416;-80
2021/09/25 10:44:32;;;;;;;30.58;18.48;;;20.10;99.90;;;;;;5004442;28;40701;-80
2021/09/25 10:47:05;;;;;;;;;;;20.20;99.90;;;;;;5014326;28;38849;-82
2021/09/25 10:49:47;;;;;;;28.27;18.90;;;20.40;99.90;;;;;;4985646;28;48546;-79
2021/09/25 10:52:16;;;;;;;25.02;17.13;;;20.40;99.90;;;;;;5006233;28;37026;-80
2021/09/25 10:54:43;;;;;;;25.30;17.00;;;20.50;99.90;;;;;;5004622;28;40026;-80
2021/09/25 10:57:16;;;;;;;24.05;17.88;;;20.60;99.90;;;;;;5006634;28;38558;-80
2021/09/25 11:00:23;;;;;;;29.48;18.88;;;20.90;99.90;;;;;;5022010;28;39015;-82
2021/09/25 11:02:49;;;;;;;27.73;18.17;;;21.00;99.90;;;;;;4995275;28;47225;-82
2021/09/25 11:05:17;;;;;;;29.77;19.35;;;21.10;99.90;;;;;;5004746;28;39369;-83
2021/09/25 11:07:58;;;;;;;26.17;17.83;;;21.00;99.90;;;;;;5017549;28;38696;-82
2021/09/25 11:11:02;;;;;;;29.77;19.30;;;21.10;99.90;;;;;;5003568;28;38598;-82
2021/09/25 11:14:05;;;;;;;25.13;17.00;;;21.10;99.90;;;;;;5008416;28;46679;-82
2021/09/25 11:16:50;;;;;;;21.60;15.05;;;21.00;99.90;;;;;;5009779;28;48706;-81
2021/09/25 11:19:22;;;;;;;30.20;17.75;;;21.20;99.90;;;;;;5004082;28;38159;-81
2021/09/25 11:22:06;;;;;;;28.23;17.25;;;21.20;99.90;;;;;;5006489;28;39574;-80
2021/09/25 11:24:42;;;;;;;24.42;16.13;;;21.10;99.90;;;;;;5010882;28;49131;-80
2021/09/25 11:27:15;;;;;;;30.45;17.10;;;21.30;99.90;;;;;;5007077;28;39436;-81
2021/09/25 11:29:51;;;;;;;26.75;15.57;;;21.60;99.90;;;;;;5000122;28;38462;-78
2021/09/25 11:32:23;;;;;;;22.15;14.80;;;21.90;99.90;;;;;;4999369;28;38814;-78
2021/09/25 11:34:49;;;;;;;22.77;15.38;;;21.80;99.90;;;;;;4996997;28;37164;-79
2021/09/25 11:37:15;;;;;;;26.17;17.95;;;21.50;99.90;;;;;;5000317;28;39831;-79
2021/09/25 11:39:44;;;;;;;26.30;17.40;;;21.10;99.90;;;;;;5000173;28;39326;-79
2021/09/25 11:42:28;;;;;;;25.27;16.30;;;20.80;99.90;;;;;;4997589;28;38797;-79
2021/09/25 11:45:09;;;;;;;23.08;16.42;;;20.80;99.90;;;;;;5000888;28;38327;-78
2021/09/25 11:47:40;;;;;;;22.30;13.57;;;20.60;99.90;;;;;;4998114;28;48277;-79
2021/09/25 11:50:34;;;;;;;25.23;14.85;;;20.60;99.90;;;;;;5007654;28;39082;-78
2021/09/25 11:53:03;;;;;;;20.83;15.38;;;20.80;99.90;;;;;;5004440;28;38934;-79
2021/09/25 11:55:31;;;;;;;23.23;15.80;;;20.80;99.90;;;;;;4996833;28;47009;-78
2021/09/25 11:57:59;;;;;;;22.15;15.57;;;20.70;99.90;;;;;;5008095;28;38817;-79
2021/09/25 12:00:25;;;;;;;25.58;17.13;;;20.60;99.90;;;;;;5005374;28;38695;-78
2021/09/25 12:02:54;;;;;;;22.92;15.70;;;20.80;99.90;;;;;;5011198;28;37887;-78
2021/09/25 12:05:41;;;;;;;22.85;15.68;;;21.00;99.90;;;;;;5006124;28;37465;-78
2021/09/25 12:08:13;;;;;;;25.38;17.38;;;20.90;99.90;;;;;;4997761;28;38632;-78
2021/09/25 12:10:50;;;;;;;21.77;14.95;;;20.80;99.90;;;;;;5007631;28;35999;-78
2021/09/25 12:13:23;;;;;;;21.85;15.25;;;20.70;99.90;;;;;;5006723;28;39101;-78
2021/09/25 12:15:52;;;;;;;23.65;14.70;;;20.90;99.90;;;;;;5002541;28;37948;-78
2021/09/25 12:18:32;;;;;;;21.58;15.95;;;21.10;99.90;;;;;;5009187;28;37453;-78
2021/09/25 12:21:00;;;;;;;21.02;15.55;;;21.10;99.90;;;;;;4998831;28;39475;-78
2021/09/25 12:23:54;;;;;;;20.48;15.07;;;21.30;99.90;;;;;;5006314;28;40518;-78
2021/09/25 12:26:26;;;;;;;27.05;17.73;;;21.40;99.90;;;;;;5020278;28;38266;-78
2021/09/25 12:29:01;;;;;;;29.27;17.27;;;21.10;99.90;;;;;;5020683;28;38547;-78
2021/09/25 12:31:30;;;;;;;29.02;18.45;;;20.80;99.90;;;;;;5017134;28;38075;-78
2021/09/25 12:34:00;;;;;;;21.10;16.55;;;20.70;99.90;;;;;;5003390;28;38156;-77
2021/09/25 12:36:32;;;;;;;24.30;16.90;;;20.90;99.90;;;;;;4995281;28;37808;-77